createdAt,value
2019-01-11T00:02:15.021Z,20.70
2019-01-11T00:04:46.741Z,20.03
2019-01-11T00:07:17.475Z,20.73
2019-01-11T00:09:51.618Z,21.33
2019-01-11T00:12:22.641Z,22.53
2019-01-11T00:14:53.167Z,21.93
2019-01-11T00:17:23.836Z,21.03
2019-01-11T00:19:55.482Z,18.23
2019-01-11T00:22:26.099Z,22.07
2019-01-11T00:24:56.727Z,19.77
2019-01-11T00:27:27.293Z,19.30
2019-01-11T00:29:57.925Z,19.43
2019-01-11T00:32:28.640Z,16.83
2019-01-11T00:34:59.449Z,16.77
2019-01-11T00:37:33.105Z,18.33
2019-01-11T00:40:04.202Z,19.47
2019-01-11T00:42:34.906Z,19.27
2019-01-11T00:45:13.774Z,18.13
2019-01-11T00:47:44.423Z,18.17
2019-01-11T00:50:15.051Z,19.00
2019-01-11T00:52:45.783Z,17.33
2019-01-11T00:55:16.773Z,19.50
2019-01-11T00:57:47.399Z,17.77
2019-01-11T01:00:22.247Z,19.37
2019-01-11T01:02:52.867Z,17.63
2019-01-11T01:05:25.455Z,19.77
2019-01-11T01:07:57.743Z,20.23
2019-01-11T01:10:31.784Z,18.43
2019-01-11T01:13:05.402Z,19.50
2019-01-11T01:15:35.961Z,19.67
2019-01-11T01:18:06.560Z,18.13
2019-01-11T01:20:37.155Z,19.00
2019-01-11T01:23:08.103Z,19.43
2019-01-11T01:25:38.774Z,19.33
2019-01-11T01:28:12.120Z,18.20
2019-01-11T01:30:41.843Z,17.40
2019-01-11T01:33:15.894Z,19.33
2019-01-11T01:35:51.144Z,17.67
2019-01-11T01:38:21.794Z,18.77
2019-01-11T01:40:52.456Z,18.93
2019-01-11T01:43:23.528Z,17.47
2019-01-11T01:45:54.205Z,18.20
2019-01-11T01:48:24.833Z,18.93
2019-01-11T01:50:55.440Z,19.53
2019-01-11T01:53:26.511Z,16.77
2019-01-11T01:55:57.498Z,18.30
2019-01-11T01:58:28.107Z,18.90
2019-01-11T02:01:01.052Z,18.13
2019-01-11T02:03:31.746Z,21.53
2019-01-11T02:06:04.528Z,18.73
2019-01-11T02:08:35.073Z,19.80
2019-01-11T02:11:05.766Z,18.00
2019-01-11T02:13:36.285Z,18.00
2019-01-11T02:16:06.987Z,20.07
2019-01-11T02:18:37.543Z,19.63
2019-01-11T02:21:08.271Z,21.27
2019-01-11T02:23:40.731Z,20.47
2019-01-11T02:26:11.352Z,21.00
2019-01-11T02:28:44.638Z,19.63
2019-01-11T02:31:15.585Z,19.67
2019-01-11T02:33:46.285Z,20.57
2019-01-11T02:36:17.138Z,22.37
2019-01-11T02:38:50.765Z,21.10
2019-01-11T02:41:21.424Z,21.07
2019-01-11T02:43:52.081Z,18.97
2019-01-11T02:46:22.741Z,20.37
2019-01-11T02:48:53.622Z,18.83
2019-01-11T02:51:24.189Z,22.30
2019-01-11T02:53:55.032Z,18.93
2019-01-11T02:56:25.971Z,18.47
2019-01-11T02:58:56.918Z,20.43
2019-01-11T03:01:27.868Z,23.57
2019-01-11T03:03:58.548Z,18.67
2019-01-11T03:06:30.620Z,21.00
2019-01-11T03:09:01.284Z,19.67
2019-01-11T03:11:35.044Z,20.87
2019-01-11T03:14:06.051Z,24.17
2019-01-11T03:16:36.982Z,22.70
2019-01-11T03:19:07.701Z,25.13
2019-01-11T03:21:38.574Z,20.70
2019-01-11T03:24:09.280Z,19.40
2019-01-11T03:26:39.899Z,21.27
2019-01-11T03:29:10.513Z,22.67
2019-01-11T03:31:41.824Z,22.20
2019-01-11T03:34:13.742Z,22.53
2019-01-11T03:36:44.595Z,20.83
2019-01-11T03:39:15.615Z,24.10
2019-01-11T03:41:48.203Z,23.33
2019-01-11T03:44:19.140Z,24.00
2019-01-11T03:46:51.715Z,19.73
2019-01-11T03:49:24.158Z,21.47
2019-01-11T03:51:54.752Z,21.00
2019-01-11T03:54:25.809Z,21.70
2019-01-11T03:56:56.696Z,22.20
2019-01-11T03:59:27.405Z,20.63
2019-01-11T04:01:58.088Z,20.02
2019-01-11T04:04:28.766Z,19.27
2019-01-11T04:07:00.300Z,21.13
2019-01-11T04:09:31.339Z,18.63
2019-01-11T04:12:02.208Z,18.87
2019-01-11T04:14:33.101Z,19.40
2019-01-11T04:17:05.102Z,20.10
2019-01-11T04:19:36.053Z,19.03
2019-01-11T04:22:09.040Z,20.23
2019-01-11T04:24:44.379Z,20.67
2019-01-11T04:27:14.990Z,19.67
2019-01-11T04:29:45.569Z,20.03
2019-01-11T04:32:16.063Z,19.93
2019-01-11T04:34:50.129Z,21.30
2019-01-11T04:37:21.077Z,21.20
2019-01-11T04:39:51.723Z,19.17
2019-01-11T04:42:22.410Z,18.33
2019-01-11T04:44:55.717Z,21.33
2019-01-11T04:47:26.536Z,20.17
2019-01-11T04:49:58.877Z,18.60
2019-01-11T04:52:29.831Z,17.90
2019-01-11T04:55:01.405Z,16.87
2019-01-11T04:57:31.996Z,17.47
2019-01-11T05:00:02.699Z,19.20
2019-01-11T05:02:33.260Z,17.87
2019-01-11T05:05:05.877Z,18.12
2019-01-11T05:07:40.516Z,17.73
2019-01-11T05:10:17.628Z,15.03
2019-01-11T05:12:48.568Z,13.43
2019-01-11T05:15:19.315Z,13.75
2019-01-11T05:17:49.808Z,15.25
2019-01-11T05:20:20.524Z,13.13
2019-01-11T05:22:51.278Z,13.68
2019-01-11T05:25:23.009Z,14.05
2019-01-11T05:27:54.814Z,12.87
2019-01-11T05:30:25.456Z,14.10
2019-01-11T05:32:55.932Z,14.57
2019-01-11T05:35:27.016Z,14.55
2019-01-11T05:37:58.032Z,15.18
2019-01-11T05:40:28.649Z,16.73
2019-01-11T05:42:59.639Z,17.00
2019-01-11T05:45:30.388Z,15.13
2019-01-11T05:48:00.936Z,15.83
2019-01-11T05:50:31.460Z,17.30
2019-01-11T05:53:01.875Z,16.43
2019-01-11T05:55:42.607Z,20.00
2019-01-11T05:58:14.891Z,21.30
2019-01-11T06:00:45.494Z,19.60
2019-01-11T06:03:16.035Z,21.60
2019-01-11T06:05:46.699Z,20.63
2019-01-11T06:08:19.562Z,20.80
2019-01-11T06:10:50.123Z,19.47
2019-01-11T06:13:20.601Z,19.00
2019-01-11T06:15:51.173Z,17.93
2019-01-11T06:18:21.871Z,18.43
2019-01-11T06:20:52.628Z,19.20
2019-01-11T06:23:23.251Z,21.00
2019-01-11T06:25:53.936Z,21.83
2019-01-11T06:28:24.511Z,19.63
2019-01-11T06:30:55.071Z,18.63
2019-01-11T06:33:25.797Z,17.53
2019-01-11T06:35:56.438Z,17.10
2019-01-11T06:38:27.005Z,17.02
2019-01-11T06:40:58.410Z,17.80
2019-01-11T06:43:28.883Z,17.00
2019-01-11T06:45:59.384Z,24.67
2019-01-11T06:48:31.544Z,24.60
2019-01-11T06:51:02.086Z,26.47
2019-01-11T06:53:32.596Z,23.65
2019-01-11T06:56:03.244Z,26.68
2019-01-11T06:58:34.112Z,26.73
2019-01-11T07:01:04.784Z,23.40
2019-01-11T07:03:35.301Z,24.02
2019-01-11T07:06:06.042Z,22.55
2019-01-11T07:08:37.402Z,22.05
2019-01-11T07:11:09.381Z,22.35
2019-01-11T07:13:40.233Z,20.65
2019-01-11T07:16:10.880Z,23.43
2019-01-11T07:18:41.294Z,23.47
2019-01-11T07:21:11.936Z,24.87
2019-01-11T07:23:42.441Z,21.73
2019-01-11T07:26:13.044Z,23.52
2019-01-11T07:28:43.637Z,22.40
2019-01-11T07:31:14.368Z,21.25
2019-01-11T07:33:45.129Z,23.75
2019-01-11T07:36:19.845Z,21.10
2019-01-11T07:38:50.354Z,22.52
2019-01-11T07:41:22.128Z,25.48
2019-01-11T07:43:52.750Z,31.23
2019-01-11T07:46:23.490Z,34.78
2019-01-11T07:48:53.995Z,31.35
2019-01-11T07:51:25.983Z,28.77
2019-01-11T07:53:56.452Z,28.83
2019-01-11T07:56:26.880Z,28.17
2019-01-11T07:58:57.493Z,27.48
2019-01-11T08:01:31.610Z,35.13
2019-01-11T08:04:02.030Z,31.80
2019-01-11T08:06:32.623Z,31.13
2019-01-11T08:09:05.522Z,24.15
2019-01-11T08:11:36.010Z,29.17
2019-01-11T08:14:07.399Z,30.43
2019-01-11T08:16:37.949Z,31.77
2019-01-11T08:19:09.337Z,28.00
2019-01-11T08:21:39.938Z,24.27
2019-01-11T08:24:10.432Z,19.73
2019-01-11T08:26:41.004Z,22.60
2019-01-11T08:29:11.582Z,18.32
2019-01-11T08:31:42.316Z,19.07
2019-01-11T08:34:13.053Z,19.87
2019-01-11T08:36:48.117Z,18.83
2019-01-11T08:39:21.175Z,20.93
2019-01-11T08:41:52.343Z,27.77
2019-01-11T08:44:23.600Z,29.50
2019-01-11T08:46:55.415Z,19.77
2019-01-11T08:49:27.944Z,19.70
2019-01-11T08:51:59.215Z,19.43
2019-01-11T08:54:30.237Z,19.87
2019-01-11T08:57:01.439Z,18.70
2019-01-11T08:59:33.710Z,24.73
2019-01-11T09:02:04.924Z,21.60
2019-01-11T09:04:37.237Z,18.10
2019-01-11T09:07:08.467Z,19.87
2019-01-11T09:09:41.156Z,19.07
2019-01-11T09:12:12.111Z,19.07
2019-01-11T09:14:47.064Z,19.93
2019-01-11T09:17:18.049Z,18.80
2019-01-11T09:19:48.718Z,20.23
2019-01-11T09:22:20.172Z,25.23
2019-01-11T09:24:51.099Z,26.57
2019-01-11T09:27:21.807Z,27.90
2019-01-11T09:29:52.340Z,29.77
2019-01-11T09:32:23.479Z,30.73
2019-01-11T09:34:54.164Z,31.97
2019-01-11T09:37:24.796Z,31.73
2019-01-11T09:39:55.339Z,34.97
2019-01-11T09:42:26.742Z,31.40
2019-01-11T09:44:57.187Z,30.17
2019-01-11T09:47:28.592Z,30.73
2019-01-11T09:49:59.247Z,29.40
2019-01-11T09:52:29.827Z,28.27
2019-01-11T09:55:00.429Z,28.70
2019-01-11T09:57:31.783Z,31.47
2019-01-11T10:00:04.477Z,30.27
2019-01-11T10:02:38.744Z,29.37
2019-01-11T10:05:10.309Z,30.70
2019-01-11T10:07:41.335Z,29.67
2019-01-11T10:10:15.661Z,30.73
2019-01-11T10:12:46.547Z,33.43
2019-01-11T10:15:21.046Z,36.17
2019-01-11T10:17:52.275Z,31.10
2019-01-11T10:20:22.769Z,28.77
2019-01-11T10:22:53.279Z,25.67
2019-01-11T10:25:23.952Z,21.93
2019-01-11T10:27:54.491Z,20.97
2019-01-11T10:30:24.944Z,24.83
2019-01-11T10:32:55.552Z,25.87
2019-01-11T10:35:26.214Z,25.87
2019-01-11T10:37:56.863Z,24.53
2019-01-11T10:40:27.474Z,25.43
2019-01-11T10:42:58.134Z,21.13
2019-01-11T10:45:28.760Z,16.53
2019-01-11T10:47:59.469Z,16.47
2019-01-11T10:50:29.978Z,15.53
2019-01-11T10:53:00.907Z,15.80
2019-01-11T10:55:31.477Z,16.00
2019-01-11T10:58:03.630Z,16.57
2019-01-11T11:00:35.482Z,16.00
2019-01-11T11:03:10.402Z,15.80
2019-01-11T11:05:40.939Z,14.73
2019-01-11T11:08:11.772Z,15.90
2019-01-11T11:10:43.064Z,14.67
2019-01-11T11:13:13.674Z,15.30
2019-01-11T11:15:45.861Z,15.50
2019-01-11T11:18:17.339Z,15.70
2019-01-11T11:20:47.881Z,15.20
2019-01-11T11:23:18.400Z,15.40
2019-01-11T11:25:52.130Z,15.87
2019-01-11T11:28:23.570Z,14.87
2019-01-11T11:30:54.830Z,16.77
2019-01-11T11:33:25.408Z,16.10
2019-01-11T11:35:55.853Z,15.53
2019-01-11T11:38:26.398Z,15.43
2019-01-11T11:40:56.871Z,14.73
2019-01-11T11:43:27.373Z,13.93
2019-01-11T11:45:58.210Z,14.10
2019-01-11T11:48:29.539Z,14.57
2019-01-11T11:50:59.943Z,15.20
2019-01-11T11:53:30.466Z,13.50
2019-01-11T11:56:01.039Z,14.13
2019-01-11T11:58:32.318Z,15.17
2019-01-11T12:01:04.425Z,14.67
2019-01-11T12:03:34.984Z,13.27
2019-01-11T12:06:05.629Z,13.87
2019-01-11T12:08:36.195Z,14.00
2019-01-11T12:11:07.682Z,14.07
2019-01-11T12:13:38.130Z,13.03
2019-01-11T12:16:18.381Z,14.23
2019-01-11T12:18:48.812Z,14.20
2019-01-11T12:21:19.434Z,13.73
2019-01-11T12:23:50.044Z,13.00
2019-01-11T12:26:21.145Z,12.93
2019-01-11T12:28:51.637Z,13.13
2019-01-11T12:31:22.089Z,11.67
2019-01-11T12:33:52.749Z,11.77
2019-01-11T12:36:23.255Z,11.43
2019-01-11T12:38:53.705Z,11.60
2019-01-11T12:41:24.194Z,10.50
2019-01-11T12:43:54.890Z,11.33
2019-01-11T12:46:25.514Z,10.70
2019-01-11T12:48:56.208Z,11.40
2019-01-11T12:51:26.843Z,10.53
2019-01-11T12:53:57.431Z,10.73
2019-01-11T12:56:28.098Z,10.90
2019-01-11T12:58:58.642Z,11.10
2019-01-11T13:01:29.133Z,10.80
2019-01-11T13:04:00.073Z,11.33
2019-01-11T13:06:30.676Z,10.47
2019-01-11T13:09:01.274Z,10.57
2019-01-11T13:11:32.658Z,10.57
2019-01-11T13:14:03.245Z,10.13
2019-01-11T13:16:34.740Z,10.80
2019-01-11T13:19:05.817Z,9.53
2019-01-11T13:21:38.243Z,9.80
2019-01-11T13:24:08.968Z,9.87
2019-01-11T13:26:42.915Z,7.63
2019-01-11T13:29:13.497Z,8.13
2019-01-11T13:31:44.081Z,8.87
2019-01-11T13:34:14.748Z,9.07
2019-01-11T13:36:45.348Z,8.60
2019-01-11T13:39:15.975Z,8.17
2019-01-11T13:41:46.425Z,8.33
2019-01-11T13:44:17.080Z,8.50
2019-01-11T13:46:47.627Z,8.87
2019-01-11T13:49:18.271Z,8.87
2019-01-11T13:51:48.830Z,8.07
2019-01-11T13:54:19.489Z,8.53
2019-01-11T13:56:49.955Z,8.43
2019-01-11T13:59:20.563Z,9.00
2019-01-11T14:01:53.510Z,8.17
2019-01-11T14:04:24.238Z,9.50
2019-01-11T14:06:55.169Z,8.80
2019-01-11T14:09:25.808Z,8.67
2019-01-11T14:11:57.171Z,10.60
2019-01-11T14:14:27.708Z,10.80
2019-01-11T14:16:58.300Z,11.40
2019-01-11T14:19:29.206Z,11.73
2019-01-11T14:21:59.864Z,12.10
2019-01-11T14:24:30.756Z,12.73
2019-01-11T14:27:01.466Z,12.87
2019-01-11T14:29:33.875Z,13.60
2019-01-11T14:32:04.571Z,13.37
2019-01-11T14:34:35.982Z,11.90
2019-01-11T14:37:06.720Z,12.43
2019-01-11T14:39:42.788Z,11.10
2019-01-11T14:42:13.325Z,12.93
2019-01-11T14:44:43.950Z,11.30
2019-01-11T14:47:14.505Z,12.17
2019-01-11T14:49:45.175Z,11.63
2019-01-11T14:52:20.329Z,11.63
2019-01-11T14:54:48.046Z,10.33
2019-01-11T14:57:20.253Z,10.33
2019-01-11T14:59:50.844Z,11.57
2019-01-11T15:02:21.396Z,11.00
2019-01-11T15:04:51.924Z,10.93
2019-01-11T15:07:22.451Z,9.63
2019-01-11T15:09:52.903Z,8.93
2019-01-11T15:12:24.253Z,10.27
2019-01-11T15:14:54.667Z,10.50
2019-01-11T15:17:26.876Z,10.20
2019-01-11T15:19:57.350Z,10.57
2019-01-11T15:22:27.878Z,10.40
2019-01-11T15:24:58.403Z,10.27
2019-01-11T15:27:28.820Z,10.97
2019-01-11T15:29:59.405Z,11.90
2019-01-11T15:32:29.781Z,11.23
2019-01-11T15:35:00.211Z,10.97
2019-01-11T15:37:30.771Z,10.57
2019-01-11T15:40:02.395Z,10.70
2019-01-11T15:42:32.920Z,9.90
2019-01-11T15:45:03.603Z,9.00
2019-01-11T15:47:34.130Z,6.53
2019-01-11T15:50:06.913Z,7.70
2019-01-11T15:52:37.440Z,6.27
2019-01-11T15:55:10.487Z,6.90
2019-01-11T15:57:43.773Z,7.30
2019-01-11T16:00:20.630Z,7.10
2019-01-11T16:02:51.267Z,7.47
2019-01-11T16:05:21.795Z,6.60
2019-01-11T16:07:52.241Z,6.03
2019-01-11T16:10:22.872Z,6.40
2019-01-11T16:12:53.285Z,6.23
2019-01-11T16:15:43.771Z,7.20
2019-01-11T16:18:19.242Z,7.00
2019-01-11T16:20:49.747Z,7.13
2019-01-11T16:23:20.303Z,8.07
2019-01-11T16:25:50.957Z,7.47
2019-01-11T16:28:21.439Z,7.50
2019-01-11T16:30:52.542Z,7.80
2019-01-11T16:33:23.518Z,8.60
2019-01-11T16:35:54.048Z,9.30
2019-01-11T16:38:25.666Z,9.77
2019-01-11T16:40:56.302Z,9.50
2019-01-11T16:43:26.862Z,9.83
2019-01-11T16:45:57.423Z,9.83
2019-01-11T16:48:28.032Z,9.83
2019-01-11T16:50:59.660Z,10.77
2019-01-11T16:53:30.745Z,9.77
2019-01-11T16:56:01.756Z,9.97
2019-01-11T16:58:35.311Z,10.53
2019-01-11T17:01:07.492Z,12.00
2019-01-11T17:03:38.529Z,11.00
2019-01-11T17:06:15.339Z,11.23
2019-01-11T17:08:46.105Z,11.30
2019-01-11T17:11:19.852Z,10.53
2019-01-11T17:13:51.032Z,11.10
2019-01-11T17:16:22.412Z,13.00
2019-01-11T17:18:52.932Z,12.63
2019-01-11T17:21:23.771Z,13.43
2019-01-11T17:23:54.916Z,11.73
2019-01-11T17:26:29.128Z,11.53
2019-01-11T17:29:00.606Z,10.93
2019-01-11T17:31:31.431Z,9.67
2019-01-11T17:34:02.350Z,10.63
2019-01-11T17:36:33.467Z,11.20
2019-01-11T17:39:07.095Z,10.57
2019-01-11T17:41:37.985Z,10.23
2019-01-11T17:44:08.703Z,11.03
2019-01-11T17:46:39.614Z,11.23
2019-01-11T17:49:10.337Z,10.10
2019-01-11T17:51:41.147Z,9.03
2019-01-11T17:54:13.075Z,8.27
2019-01-11T17:56:46.086Z,9.23
2019-01-11T17:59:17.390Z,9.83
2019-01-11T18:01:48.015Z,9.10
2019-01-11T18:04:18.567Z,8.47
2019-01-11T18:06:49.042Z,9.53
2019-01-11T18:09:19.571Z,10.37
2019-01-11T18:11:50.135Z,9.40
2019-01-11T18:14:21.556Z,11.57
2019-01-11T18:16:52.039Z,10.17
2019-01-11T18:19:22.640Z,10.47
2019-01-11T18:21:53.144Z,10.50
2019-01-11T18:24:25.792Z,10.73
2019-01-11T18:26:56.427Z,11.17
2019-01-11T18:29:27.049Z,11.70
2019-01-11T18:31:58.569Z,11.17
2019-01-11T18:34:29.093Z,11.97
2019-01-11T18:36:59.594Z,12.10
2019-01-11T18:39:30.260Z,13.20
2019-01-11T18:42:01.137Z,13.20
2019-01-11T18:44:31.715Z,13.23
2019-01-11T18:47:02.276Z,15.40
2019-01-11T18:49:32.882Z,13.23
2019-01-11T18:52:13.211Z,12.30
2019-01-11T18:54:43.729Z,11.70
2019-01-11T18:57:14.420Z,10.03
2019-01-11T18:59:45.768Z,11.33
2019-01-11T19:02:16.167Z,11.53
2019-01-11T19:04:46.732Z,11.50
2019-01-11T19:07:17.309Z,11.20
2019-01-11T19:09:47.882Z,12.07
2019-01-11T19:12:19.680Z,10.77
2019-01-11T19:14:52.810Z,10.63
2019-01-11T19:17:23.774Z,10.40
2019-01-11T19:19:55.280Z,12.63
2019-01-11T19:22:27.408Z,9.47
2019-01-11T19:24:57.929Z,9.70
2019-01-11T19:27:28.612Z,11.37
2019-01-11T19:29:59.158Z,11.27
2019-01-11T19:32:29.664Z,13.70
2019-01-11T19:35:00.518Z,13.10
2019-01-11T19:37:34.469Z,12.50
2019-01-11T19:40:09.374Z,12.47
2019-01-11T19:42:40.016Z,13.53
2019-01-11T19:45:13.395Z,13.70
2019-01-11T19:47:44.117Z,13.67
2019-01-11T19:50:20.747Z,15.10
2019-01-11T19:52:51.765Z,13.57
2019-01-11T19:55:22.570Z,12.30
2019-01-11T19:57:53.138Z,10.50
2019-01-11T20:00:26.532Z,11.03
2019-01-11T20:02:57.254Z,10.67
2019-01-11T20:05:28.562Z,10.60
2019-01-11T20:07:59.209Z,9.03
2019-01-11T20:10:31.815Z,11.20
2019-01-11T20:13:02.419Z,9.03
2019-01-11T20:15:33.907Z,10.03
2019-01-11T20:18:05.745Z,9.37
2019-01-11T20:20:36.467Z,9.47
2019-01-11T20:23:07.323Z,9.33
2019-01-11T20:25:42.347Z,9.33
2019-01-11T20:28:11.275Z,8.97
2019-01-11T20:30:42.285Z,8.50
2019-01-11T20:33:13.285Z,9.37
2019-01-11T20:35:47.119Z,10.50
2019-01-11T20:38:18.083Z,10.10
2019-01-11T20:40:49.078Z,10.53
2019-01-11T20:43:23.150Z,11.57
2019-01-11T20:45:55.509Z,10.57
2019-01-11T20:48:27.649Z,11.17
2019-01-11T20:50:58.941Z,9.50
2019-01-11T20:53:31.387Z,9.80
2019-01-11T20:56:02.970Z,11.37
2019-01-11T20:58:34.464Z,8.80
2019-01-11T21:01:07.172Z,11.67
2019-01-11T21:03:39.389Z,9.73
2019-01-11T21:06:10.934Z,9.17
2019-01-11T21:08:41.436Z,8.90
2019-01-11T21:11:12.020Z,10.03
2019-01-11T21:13:42.740Z,10.13
2019-01-11T21:16:14.617Z,8.37
2019-01-11T21:18:45.373Z,10.17
2019-01-11T21:21:16.142Z,8.33
2019-01-11T21:23:48.917Z,9.97
2019-01-11T21:26:19.720Z,10.60
2019-01-11T21:28:53.904Z,9.17
2019-01-11T21:31:25.220Z,9.77
2019-01-11T21:33:56.271Z,10.23
2019-01-11T21:36:27.898Z,10.10
2019-01-11T21:38:59.454Z,10.20
2019-01-11T21:41:31.579Z,11.13
2019-01-11T21:44:02.851Z,14.43
2019-01-11T21:46:34.161Z,13.17
2019-01-11T21:49:04.861Z,11.57
2019-01-11T21:51:36.724Z,11.30
2019-01-11T21:54:08.258Z,14.10
2019-01-11T21:56:40.534Z,10.60
2019-01-11T21:59:14.608Z,10.87
2019-01-11T22:01:45.806Z,13.73
2019-01-11T22:04:17.107Z,9.13
2019-01-11T22:06:47.886Z,10.20
2019-01-11T22:09:18.624Z,8.93
2019-01-11T22:11:49.239Z,9.67
2019-01-11T22:14:19.981Z,8.53
2019-01-11T22:16:51.530Z,9.10
2019-01-11T22:19:22.251Z,9.90
2019-01-11T22:21:54.951Z,8.53
2019-01-11T22:24:26.609Z,8.80
2019-01-11T22:26:58.285Z,7.70
2019-01-11T22:29:29.227Z,8.10
2019-01-11T22:32:00.274Z,7.53
2019-01-11T22:34:31.430Z,7.47
2019-01-11T22:37:02.045Z,7.23
2019-01-11T22:39:32.922Z,8.63
2019-01-11T22:42:04.173Z,7.80
2019-01-11T22:44:34.911Z,7.70
2019-01-11T22:47:05.569Z,7.53
2019-01-11T22:49:36.339Z,7.37
2019-01-11T22:52:08.538Z,7.80
2019-01-11T22:54:40.671Z,6.83
2019-01-11T22:57:11.321Z,6.97
2019-01-11T22:59:41.991Z,8.87
2019-01-11T23:02:18.896Z,7.73
2019-01-11T23:04:49.577Z,7.03
2019-01-11T23:07:24.433Z,7.37
2019-01-11T23:09:56.551Z,7.57
2019-01-11T23:12:37.713Z,7.73
2019-01-11T23:15:13.580Z,8.73
2019-01-11T23:17:49.840Z,7.60
2019-01-11T23:20:20.489Z,6.27
2019-01-11T23:22:50.974Z,6.83
2019-01-11T23:25:21.505Z,8.30
2019-01-11T23:27:52.104Z,7.37
2019-01-11T23:30:22.861Z,7.13
2019-01-11T23:32:53.974Z,7.17
2019-01-11T23:35:24.733Z,7.53
2019-01-11T23:37:55.885Z,6.83
2019-01-11T23:40:27.495Z,7.17
2019-01-11T23:42:58.484Z,7.80
2019-01-11T23:45:29.984Z,7.30
2019-01-11T23:48:02.467Z,7.80
2019-01-11T23:50:33.598Z,9.33
2019-01-11T23:53:04.262Z,8.33
2019-01-11T23:55:36.890Z,8.30
2019-01-11T23:58:08.615Z,7.40
